sensor_id;sensor_type;location;lat;lon;timestamp;temperature;humidity
33811;DHT22;20119;48.334;16.206;2022-10-16T00:01:31;11.30;99.90
33811;DHT22;20119;48.334;16.206;2022-10-16T00:03:59;11.20;99.90
33811;DHT22;20119;48.334;16.206;2022-10-16T00:06:27;11.20;99.90
33811;DHT22;20119;48.334;16.206;2022-10-16T00:08:54;11.10;99.90
33811;DHT22;20119;48.334;16.206;2022-10-16T00:11:25;11.10;99.90
33811;DHT22;20119;48.334;16.206;2022-10-16T00:13:55;11.10;99.90
33811;DHT22;20119;48.334;16.206;2022-10-16T00:16:22;11.20;99.90
33811;DHT22;20119;48.334;16.206;2022-10-16T00:18:51;11.40;99.90
33811;DHT22;20119;48.334;16.206;2022-10-16T00:21:18;11.40;99.90
33811;DHT22;20119;48.334;16.206;2022-10-16T00:23:46;11.30;99.90
33811;DHT22;20119;48.334;16.206;2022-10-16T00:26:15;11.30;99.90
33811;DHT22;20119;48.334;16.206;2022-10-16T00:28:44;11.20;99.90
33811;DHT22;20119;48.334;16.206;2022-10-16T00:31:11;11.30;99.90
33811;DHT22;20119;48.334;16.206;2022-10-16T00:33:39;11.20;99.90
33811;DHT22;20119;48.334;16.206;2022-10-16T00:36:09;11.20;99.90
33811;DHT22;20119;48.334;16.206;2022-10-16T00:38:36;11.10;99.90
33811;DHT22;20119;48.334;16.206;2022-10-16T00:41:03;11.00;99.90
33811;DHT22;20119;48.334;16.206;2022-10-16T00:43:38;11.00;99.90
33811;DHT22;20119;48.334;16.206;2022-10-16T00:46:08;11.00;99.90
33811;DHT22;20119;48.334;16.206;2022-10-16T00:48:36;10.90;99.90
33811;DHT22;20119;48.334;16.206;2022-10-16T00:51:03;10.90;99.90
33811;DHT22;20119;48.334;16.206;2022-10-16T00:53:34;10.90;99.90
33811;DHT22;20119;48.334;16.206;2022-10-16T00:56:02;10.80;99.90
33811;DHT22;20119;48.334;16.206;2022-10-16T00:58:29;10.70;99.90
33811;DHT22;20119;48.334;16.206;2022-10-16T01:00:56;10.70;99.90
33811;DHT22;20119;48.334;16.206;2022-10-16T01:03:24;10.70;99.90
33811;DHT22;20119;48.334;16.206;2022-10-16T01:05:54;10.70;99.90
33811;DHT22;20119;48.334;16.206;2022-10-16T01:08:26;10.70;99.90
33811;DHT22;20119;48.334;16.206;2022-10-16T01:10:57;10.70;99.90
33811;DHT22;20119;48.334;16.206;2022-10-16T01:13:24;10.70;99.90
33811;DHT22;20119;48.334;16.206;2022-10-16T01:15:56;10.70;99.90
33811;DHT22;20119;48.334;16.206;2022-10-16T01:18:27;10.70;99.90
33811;DHT22;20119;48.334;16.206;2022-10-16T01:20:58;10.70;99.90
33811;DHT22;20119;48.334;16.206;2022-10-16T01:23:34;10.70;99.90
33811;DHT22;20119;48.334;16.206;2022-10-16T01:28:53;10.60;99.90
33811;DHT22;20119;48.334;16.206;2022-10-16T01:31:22;10.60;99.90
33811;DHT22;20119;48.334;16.206;2022-10-16T01:33:51;10.60;99.90
33811;DHT22;20119;48.334;16.206;2022-10-16T01:36:21;10.60;99.90
33811;DHT22;20119;48.334;16.206;2022-10-16T01:38:49;10.60;99.90
33811;DHT22;20119;48.334;16.206;2022-10-16T01:41:21;10.60;99.90
33811;DHT22;20119;48.334;16.206;2022-10-16T01:43:51;10.60;99.90
33811;DHT22;20119;48.334;16.206;2022-10-16T01:46:21;10.60;99.90
33811;DHT22;20119;48.334;16.206;2022-10-16T01:48:49;10.60;99.90
33811;DHT22;20119;48.334;16.206;2022-10-16T01:51:17;10.70;99.90
33811;DHT22;20119;48.334;16.206;2022-10-16T01:53:46;10.60;99.90
33811;DHT22;20119;48.334;16.206;2022-10-16T01:56:15;10.60;99.90
33811;DHT22;20119;48.334;16.206;2022-10-16T01:58:45;10.80;99.90
33811;DHT22;20119;48.334;16.206;2022-10-16T02:01:14;10.70;99.90
33811;DHT22;20119;48.334;16.206;2022-10-16T02:03:44;10.70;99.90
33811;DHT22;20119;48.334;16.206;2022-10-16T02:06:12;10.70;99.90
33811;DHT22;20119;48.334;16.206;2022-10-16T02:08:38;10.70;99.90
33811;DHT22;20119;48.334;16.206;2022-10-16T02:11:09;10.70;99.90
33811;DHT22;20119;48.334;16.206;2022-10-16T02:13:37;10.70;99.90
33811;DHT22;20119;48.334;16.206;2022-10-16T02:16:05;10.70;99.90
33811;DHT22;20119;48.334;16.206;2022-10-16T02:18:32;10.70;99.90
33811;DHT22;20119;48.334;16.206;2022-10-16T02:21:02;10.70;99.90
33811;DHT22;20119;48.334;16.206;2022-10-16T02:23:35;10.60;99.90
33811;DHT22;20119;48.334;16.206;2022-10-16T02:26:03;10.70;99.90
33811;DHT22;20119;48.334;16.206;2022-10-16T02:28:31;10.60;99.90
33811;DHT22;20119;48.334;16.206;2022-10-16T02:31:03;10.60;99.90
33811;DHT22;20119;48.334;16.206;2022-10-16T02:33:32;10.60;99.90
33811;DHT22;20119;48.334;16.206;2022-10-16T02:36:01;10.60;99.90
33811;DHT22;20119;48.334;16.206;2022-10-16T02:38:28;10.50;99.90
33811;DHT22;20119;48.334;16.206;2022-10-16T02:40:57;10.50;99.90
33811;DHT22;20119;48.334;16.206;2022-10-16T02:43:24;10.50;99.90
33811;DHT22;20119;48.334;16.206;2022-10-16T02:45:51;10.60;99.90
33811;DHT22;20119;48.334;16.206;2022-10-16T02:48:18;10.50;99.90
33811;DHT22;20119;48.334;16.206;2022-10-16T02:50:45;10.50;99.90
33811;DHT22;20119;48.334;16.206;2022-10-16T02:53:14;10.50;99.90
33811;DHT22;20119;48.334;16.206;2022-10-16T02:55:42;10.60;99.90
33811;DHT22;20119;48.334;16.206;2022-10-16T02:58:09;10.60;99.90
33811;DHT22;20119;48.334;16.206;2022-10-16T03:00:36;10.60;99.90
33811;DHT22;20119;48.334;16.206;2022-10-16T03:03:03;10.60;99.90
33811;DHT22;20119;48.334;16.206;2022-10-16T03:05:30;10.60;99.90
33811;DHT22;20119;48.334;16.206;2022-10-16T03:07:57;10.60;99.90
33811;DHT22;20119;48.334;16.206;2022-10-16T03:10:27;10.60;99.90
33811;DHT22;20119;48.334;16.206;2022-10-16T03:12:53;10.80;99.90
33811;DHT22;20119;48.334;16.206;2022-10-16T03:15:20;10.80;99.90
33811;DHT22;20119;48.334;16.206;2022-10-16T03:17:47;10.80;99.90
33811;DHT22;20119;48.334;16.206;2022-10-16T03:20:14;10.80;99.90
33811;DHT22;20119;48.334;16.206;2022-10-16T03:22:41;10.90;99.90
33811;DHT22;20119;48.334;16.206;2022-10-16T03:25:08;10.90;99.90
33811;DHT22;20119;48.334;16.206;2022-10-16T03:27:42;10.90;99.90
33811;DHT22;20119;48.334;16.206;2022-10-16T03:30:09;10.90;99.90
33811;DHT22;20119;48.334;16.206;2022-10-16T03:32:38;10.90;99.90
33811;DHT22;20119;48.334;16.206;2022-10-16T03:35:06;11.00;99.90
33811;DHT22;20119;48.334;16.206;2022-10-16T03:37:34;11.00;99.90
33811;DHT22;20119;48.334;16.206;2022-10-16T03:40:02;11.00;99.90
33811;DHT22;20119;48.334;16.206;2022-10-16T03:42:28;11.10;99.90
33811;DHT22;20119;48.334;16.206;2022-10-16T03:44:57;11.10;99.90
33811;DHT22;20119;48.334;16.206;2022-10-16T03:47:24;11.10;99.90
33811;DHT22;20119;48.334;16.206;2022-10-16T03:49:51;11.10;99.90
33811;DHT22;20119;48.334;16.206;2022-10-16T03:52:18;11.10;99.90
33811;DHT22;20119;48.334;16.206;2022-10-16T03:54:45;11.10;99.90
33811;DHT22;20119;48.334;16.206;2022-10-16T03:57:12;11.10;99.90
33811;DHT22;20119;48.334;16.206;2022-10-16T03:59:39;11.00;99.90
33811;DHT22;20119;48.334;16.206;2022-10-16T04:02:07;11.10;99.90
33811;DHT22;20119;48.334;16.206;2022-10-16T04:04:34;11.10;99.90
33811;DHT22;20119;48.334;16.206;2022-10-16T04:07:01;11.10;99.90
33811;DHT22;20119;48.334;16.206;2022-10-16T04:09:28;11.00;99.90
33811;DHT22;20119;48.334;16.206;2022-10-16T04:11:55;11.00;99.90
33811;DHT22;20119;48.334;16.206;2022-10-16T04:14:22;11.10;99.90
33811;DHT22;20119;48.334;16.206;2022-10-16T04:16:48;11.00;99.90
33811;DHT22;20119;48.334;16.206;2022-10-16T04:19:17;11.00;99.90
33811;DHT22;20119;48.334;16.206;2022-10-16T04:21:44;11.00;99.90
33811;DHT22;20119;48.334;16.206;2022-10-16T04:24:11;11.00;99.90
33811;DHT22;20119;48.334;16.206;2022-10-16T04:26:38;11.00;99.90
33811;DHT22;20119;48.334;16.206;2022-10-16T04:29:05;11.00;99.90
33811;DHT22;20119;48.334;16.206;2022-10-16T04:31:33;10.90;99.90
33811;DHT22;20119;48.334;16.206;2022-10-16T04:34:00;11.00;99.90
33811;DHT22;20119;48.334;16.206;2022-10-16T04:36:29;11.00;99.90
33811;DHT22;20119;48.334;16.206;2022-10-16T04:38:56;10.90;99.90
33811;DHT22;20119;48.334;16.206;2022-10-16T04:41:23;10.90;99.90
33811;DHT22;20119;48.334;16.206;2022-10-16T04:43:50;10.90;99.90
33811;DHT22;20119;48.334;16.206;2022-10-16T04:46:18;11.00;99.90
33811;DHT22;20119;48.334;16.206;2022-10-16T04:48:44;11.00;99.90
33811;DHT22;20119;48.334;16.206;2022-10-16T04:51:12;11.00;99.90
33811;DHT22;20119;48.334;16.206;2022-10-16T04:53:41;10.90;99.90
33811;DHT22;20119;48.334;16.206;2022-10-16T04:56:08;11.00;99.90
33811;DHT22;20119;48.334;16.206;2022-10-16T04:58:35;11.00;99.90
33811;DHT22;20119;48.334;16.206;2022-10-16T05:01:02;11.00;99.90
33811;DHT22;20119;48.334;16.206;2022-10-16T05:03:29;11.00;99.90
33811;DHT22;20119;48.334;16.206;2022-10-16T05:05:56;11.00;99.90
33811;DHT22;20119;48.334;16.206;2022-10-16T05:08:23;11.10;99.90
33811;DHT22;20119;48.334;16.206;2022-10-16T05:10:52;11.10;99.90
33811;DHT22;20119;48.334;16.206;2022-10-16T05:13:18;11.10;99.90
33811;DHT22;20119;48.334;16.206;2022-10-16T05:15:46;11.00;99.90
33811;DHT22;20119;48.334;16.206;2022-10-16T05:18:13;11.10;99.90
33811;DHT22;20119;48.334;16.206;2022-10-16T05:20:40;11.10;99.90
33811;DHT22;20119;48.334;16.206;2022-10-16T05:23:08;11.10;99.90
33811;DHT22;20119;48.334;16.206;2022-10-16T05:25:35;11.10;99.90
33811;DHT22;20119;48.334;16.206;2022-10-16T05:28:03;11.10;99.90
33811;DHT22;20119;48.334;16.206;2022-10-16T05:30:30;11.10;99.90
33811;DHT22;20119;48.334;16.206;2022-10-16T05:32:57;11.20;99.90
33811;DHT22;20119;48.334;16.206;2022-10-16T05:35:24;11.10;99.90
33811;DHT22;20119;48.334;16.206;2022-10-16T05:37:51;11.20;99.90
33811;DHT22;20119;48.334;16.206;2022-10-16T05:40:19;11.20;99.90
33811;DHT22;20119;48.334;16.206;2022-10-16T05:42:47;11.20;99.90
33811;DHT22;20119;48.334;16.206;2022-10-16T05:45:15;11.20;99.90
33811;DHT22;20119;48.334;16.206;2022-10-16T05:47:44;11.10;99.90
33811;DHT22;20119;48.334;16.206;2022-10-16T05:50:11;11.10;99.90
33811;DHT22;20119;48.334;16.206;2022-10-16T05:52:38;11.10;99.90
33811;DHT22;20119;48.334;16.206;2022-10-16T05:55:05;11.20;99.90
33811;DHT22;20119;48.334;16.206;2022-10-16T05:57:32;11.30;99.90
33811;DHT22;20119;48.334;16.206;2022-10-16T05:59:59;11.30;99.90
33811;DHT22;20119;48.334;16.206;2022-10-16T06:02:30;11.20;99.90
33811;DHT22;20119;48.334;16.206;2022-10-16T06:04:57;11.20;99.90
33811;DHT22;20119;48.334;16.206;2022-10-16T06:07:24;11.20;99.90
33811;DHT22;20119;48.334;16.206;2022-10-16T06:09:52;11.30;99.90
33811;DHT22;20119;48.334;16.206;2022-10-16T06:12:19;11.40;99.90
33811;DHT22;20119;48.334;16.206;2022-10-16T06:14:46;11.40;99.90
33811;DHT22;20119;48.334;16.206;2022-10-16T06:17:13;11.50;99.90
33811;DHT22;20119;48.334;16.206;2022-10-16T06:19:42;11.60;99.90
33811;DHT22;20119;48.334;16.206;2022-10-16T06:22:09;11.70;99.90
33811;DHT22;20119;48.334;16.206;2022-10-16T06:24:36;11.70;99.90
33811;DHT22;20119;48.334;16.206;2022-10-16T06:27:03;11.80;99.90
33811;DHT22;20119;48.334;16.206;2022-10-16T06:29:30;11.90;99.90
33811;DHT22;20119;48.334;16.206;2022-10-16T06:31:56;12.00;99.90
33811;DHT22;20119;48.334;16.206;2022-10-16T06:34:23;12.00;99.90
33811;DHT22;20119;48.334;16.206;2022-10-16T06:36:52;12.10;99.90
33811;DHT22;20119;48.334;16.206;2022-10-16T06:39:19;12.00;99.90
33811;DHT22;20119;48.334;16.206;2022-10-16T06:41:46;12.00;99.90
33811;DHT22;20119;48.334;16.206;2022-10-16T06:44:14;12.00;99.90
33811;DHT22;20119;48.334;16.206;2022-10-16T06:46:41;12.10;99.90
33811;DHT22;20119;48.334;16.206;2022-10-16T06:49:08;12.10;99.90
33811;DHT22;20119;48.334;16.206;2022-10-16T06:51:36;12.10;99.90
33811;DHT22;20119;48.334;16.206;2022-10-16T06:54:07;12.00;99.90
33811;DHT22;20119;48.334;16.206;2022-10-16T06:56:35;12.00;99.90
33811;DHT22;20119;48.334;16.206;2022-10-16T06:59:03;12.00;99.90
33811;DHT22;20119;48.334;16.206;2022-10-16T07:01:30;12.20;99.90
33811;DHT22;20119;48.334;16.206;2022-10-16T07:03:57;12.00;99.90
33811;DHT22;20119;48.334;16.206;2022-10-16T07:06:24;12.10;99.90
33811;DHT22;20119;48.334;16.206;2022-10-16T07:08:52;12.20;99.90
33811;DHT22;20119;48.334;16.206;2022-10-16T07:11:21;12.40;99.90
33811;DHT22;20119;48.334;16.206;2022-10-16T07:13:49;12.30;99.90
33811;DHT22;20119;48.334;16.206;2022-10-16T07:16:16;12.50;99.90
33811;DHT22;20119;48.334;16.206;2022-10-16T07:18:44;12.70;99.90
33811;DHT22;20119;48.334;16.206;2022-10-16T07:21:13;12.80;99.90
33811;DHT22;20119;48.334;16.206;2022-10-16T07:23:40;12.70;99.90
33811;DHT22;20119;48.334;16.206;2022-10-16T07:26:08;12.50;99.90
33811;DHT22;20119;48.334;16.206;2022-10-16T07:28:37;12.50;99.90
33811;DHT22;20119;48.334;16.206;2022-10-16T07:31:05;12.60;99.90
33811;DHT22;20119;48.334;16.206;2022-10-16T07:33:33;12.80;99.90
33811;DHT22;20119;48.334;16.206;2022-10-16T07:36:00;12.90;99.90
33811;DHT22;20119;48.334;16.206;2022-10-16T07:38:27;13.10;99.90
33811;DHT22;20119;48.334;16.206;2022-10-16T07:40:57;13.20;99.90
33811;DHT22;20119;48.334;16.206;2022-10-16T07:43:24;13.80;99.90
33811;DHT22;20119;48.334;16.206;2022-10-16T07:45:52;14.20;99.90
33811;DHT22;20119;48.334;16.206;2022-10-16T07:48:20;14.60;99.90
33811;DHT22;20119;48.334;16.206;2022-10-16T07:50:47;14.50;99.90
33811;DHT22;20119;48.334;16.206;2022-10-16T07:53:14;14.60;99.90
33811;DHT22;20119;48.334;16.206;2022-10-16T07:55:41;14.80;99.90
33811;DHT22;20119;48.334;16.206;2022-10-16T07:58:09;14.60;99.90
33811;DHT22;20119;48.334;16.206;2022-10-16T08:00:36;14.80;99.90
33811;DHT22;20119;48.334;16.206;2022-10-16T08:03:05;15.10;99.90
33811;DHT22;20119;48.334;16.206;2022-10-16T08:05:32;15.20;99.90
33811;DHT22;20119;48.334;16.206;2022-10-16T08:08:01;15.60;99.90
33811;DHT22;20119;48.334;16.206;2022-10-16T08:10:28;15.30;99.90
33811;DHT22;20119;48.334;16.206;2022-10-16T08:12:57;15.70;99.90
33811;DHT22;20119;48.334;16.206;2022-10-16T08:15:25;16.20;99.90
33811;DHT22;20119;48.334;16.206;2022-10-16T08:17:58;16.00;99.90
33811;DHT22;20119;48.334;16.206;2022-10-16T08:20:27;16.00;99.90
33811;DHT22;20119;48.334;16.206;2022-10-16T08:22:54;16.00;99.90
33811;DHT22;20119;48.334;16.206;2022-10-16T08:25:21;15.90;99.90
33811;DHT22;20119;48.334;16.206;2022-10-16T08:27:49;15.80;99.90
33811;DHT22;20119;48.334;16.206;2022-10-16T08:30:16;15.90;99.90
33811;DHT22;20119;48.334;16.206;2022-10-16T08:32:43;15.80;99.90
33811;DHT22;20119;48.334;16.206;2022-10-16T08:35:10;15.50;99.90
33811;DHT22;20119;48.334;16.206;2022-10-16T08:37:39;15.60;99.90
33811;DHT22;20119;48.334;16.206;2022-10-16T08:40:06;15.60;99.90
33811;DHT22;20119;48.334;16.206;2022-10-16T08:42:37;15.70;99.90
33811;DHT22;20119;48.334;16.206;2022-10-16T08:45:14;15.70;99.90
33811;DHT22;20119;48.334;16.206;2022-10-16T08:47:47;15.80;99.90
33811;DHT22;20119;48.334;16.206;2022-10-16T08:50:17;16.10;99.90
33811;DHT22;20119;48.334;16.206;2022-10-16T08:52:47;15.90;99.90
33811;DHT22;20119;48.334;16.206;2022-10-16T08:55:22;15.80;99.90
33811;DHT22;20119;48.334;16.206;2022-10-16T08:57:54;15.50;99.90
33811;DHT22;20119;48.334;16.206;2022-10-16T09:00:21;15.30;99.90
33811;DHT22;20119;48.334;16.206;2022-10-16T09:02:50;15.30;99.90
33811;DHT22;20119;48.334;16.206;2022-10-16T09:08:10;15.10;99.90
33811;DHT22;20119;48.334;16.206;2022-10-16T09:10:46;14.70;99.90
33811;DHT22;20119;48.334;16.206;2022-10-16T09:13:17;14.50;99.90
33811;DHT22;20119;48.334;16.206;2022-10-16T09:15:47;14.80;99.90
33811;DHT22;20119;48.334;16.206;2022-10-16T09:18:17;14.90;99.90
33811;DHT22;20119;48.334;16.206;2022-10-16T09:20:49;15.10;99.90
33811;DHT22;20119;48.334;16.206;2022-10-16T09:23:19;14.90;99.90
33811;DHT22;20119;48.334;16.206;2022-10-16T09:25:47;15.20;99.90
33811;DHT22;20119;48.334;16.206;2022-10-16T09:28:15;15.40;99.90
33811;DHT22;20119;48.334;16.206;2022-10-16T09:30:43;15.40;99.90
33811;DHT22;20119;48.334;16.206;2022-10-16T09:33:12;15.60;99.90
33811;DHT22;20119;48.334;16.206;2022-10-16T09:35:40;15.70;99.90
33811;DHT22;20119;48.334;16.206;2022-10-16T09:38:08;15.70;99.90
33811;DHT22;20119;48.334;16.206;2022-10-16T09:40:38;15.40;99.90
33811;DHT22;20119;48.334;16.206;2022-10-16T09:43:14;15.30;99.90
33811;DHT22;20119;48.334;16.206;2022-10-16T09:45:43;15.60;99.90
33811;DHT22;20119;48.334;16.206;2022-10-16T09:48:10;15.80;99.90
33811;DHT22;20119;48.334;16.206;2022-10-16T09:50:37;15.90;99.90
33811;DHT22;20119;48.334;16.206;2022-10-16T09:53:05;16.00;99.90
33811;DHT22;20119;48.334;16.206;2022-10-16T09:55:33;15.80;99.90
33811;DHT22;20119;48.334;16.206;2022-10-16T09:58:02;15.80;99.90
33811;DHT22;20119;48.334;16.206;2022-10-16T10:00:29;16.20;99.90
33811;DHT22;20119;48.334;16.206;2022-10-16T10:02:57;16.50;99.90
33811;DHT22;20119;48.334;16.206;2022-10-16T10:05:25;16.20;99.90
33811;DHT22;20119;48.334;16.206;2022-10-16T10:07:54;16.20;99.90
33811;DHT22;20119;48.334;16.206;2022-10-16T10:10:24;16.30;99.90
33811;DHT22;20119;48.334;16.206;2022-10-16T10:12:51;16.50;99.90
33811;DHT22;20119;48.334;16.206;2022-10-16T10:15:20;16.40;99.90
33811;DHT22;20119;48.334;16.206;2022-10-16T10:17:50;16.40;99.90
33811;DHT22;20119;48.334;16.206;2022-10-16T10:20:24;16.70;99.90
33811;DHT22;20119;48.334;16.206;2022-10-16T10:22:53;16.70;99.90
33811;DHT22;20119;48.334;16.206;2022-10-16T10:25:24;17.00;99.90
33811;DHT22;20119;48.334;16.206;2022-10-16T10:27:56;17.10;99.90
33811;DHT22;20119;48.334;16.206;2022-10-16T10:30:29;16.90;99.90
33811;DHT22;20119;48.334;16.206;2022-10-16T10:33:07;16.80;99.90
33811;DHT22;20119;48.334;16.206;2022-10-16T10:35:39;16.70;99.90
33811;DHT22;20119;48.334;16.206;2022-10-16T10:38:12;17.10;99.90
33811;DHT22;20119;48.334;16.206;2022-10-16T10:40:45;17.20;99.90
33811;DHT22;20119;48.334;16.206;2022-10-16T10:43:21;17.40;99.90
33811;DHT22;20119;48.334;16.206;2022-10-16T10:45:52;17.60;99.90
33811;DHT22;20119;48.334;16.206;2022-10-16T10:48:29;17.70;99.90
33811;DHT22;20119;48.334;16.206;2022-10-16T10:51:08;17.30;99.90
33811;DHT22;20119;48.334;16.206;2022-10-16T10:53:40;17.30;99.90
33811;DHT22;20119;48.334;16.206;2022-10-16T10:56:14;17.80;99.90
33811;DHT22;20119;48.334;16.206;2022-10-16T11:01:30;17.60;99.90
33811;DHT22;20119;48.334;16.206;2022-10-16T11:04:08;18.00;99.90
33811;DHT22;20119;48.334;16.206;2022-10-16T11:06:39;18.50;99.90
33811;DHT22;20119;48.334;16.206;2022-10-16T11:09:09;18.80;99.90
33811;DHT22;20119;48.334;16.206;2022-10-16T11:11:38;18.70;99.90
33811;DHT22;20119;48.334;16.206;2022-10-16T11:14:10;19.10;99.90
33811;DHT22;20119;48.334;16.206;2022-10-16T11:16:42;19.10;99.90
33811;DHT22;20119;48.334;16.206;2022-10-16T11:19:11;19.20;99.90
33811;DHT22;20119;48.334;16.206;2022-10-16T11:21:42;19.20;99.90
33811;DHT22;20119;48.334;16.206;2022-10-16T11:24:14;19.30;99.90
33811;DHT22;20119;48.334;16.206;2022-10-16T11:26:43;19.40;99.90
33811;DHT22;20119;48.334;16.206;2022-10-16T11:29:12;19.30;99.90
33811;DHT22;20119;48.334;16.206;2022-10-16T11:31:45;19.20;99.90
33811;DHT22;20119;48.334;16.206;2022-10-16T11:34:15;19.20;99.90
33811;DHT22;20119;48.334;16.206;2022-10-16T11:36:44;19.20;99.90
33811;DHT22;20119;48.334;16.206;2022-10-16T11:39:17;19.30;99.90
33811;DHT22;20119;48.334;16.206;2022-10-16T11:41:45;19.10;99.90
33811;DHT22;20119;48.334;16.206;2022-10-16T11:44:16;19.20;99.90
33811;DHT22;20119;48.334;16.206;2022-10-16T11:46:48;19.20;99.90
33811;DHT22;20119;48.334;16.206;2022-10-16T11:49:18;19.00;99.90
33811;DHT22;20119;48.334;16.206;2022-10-16T11:51:48;19.00;99.90
33811;DHT22;20119;48.334;16.206;2022-10-16T11:54:20;19.20;99.90
33811;DHT22;20119;48.334;16.206;2022-10-16T11:56:50;19.30;99.90
33811;DHT22;20119;48.334;16.206;2022-10-16T11:59:20;19.30;99.90
33811;DHT22;20119;48.334;16.206;2022-10-16T12:01:50;19.10;99.90
33811;DHT22;20119;48.334;16.206;2022-10-16T12:04:20;18.80;99.90
33811;DHT22;20119;48.334;16.206;2022-10-16T12:06:49;18.80;99.90
33811;DHT22;20119;48.334;16.206;2022-10-16T12:09:19;18.80;99.90
33811;DHT22;20119;48.334;16.206;2022-10-16T12:11:47;18.90;99.90
33811;DHT22;20119;48.334;16.206;2022-10-16T12:14:19;18.90;99.90
33811;DHT22;20119;48.334;16.206;2022-10-16T12:16:53;18.90;99.90
33811;DHT22;20119;48.334;16.206;2022-10-16T12:19:20;18.90;99.90
33811;DHT22;20119;48.334;16.206;2022-10-16T12:21:48;18.80;99.90
33811;DHT22;20119;48.334;16.206;2022-10-16T12:24:27;19.00;99.90
33811;DHT22;20119;48.334;16.206;2022-10-16T12:26:56;19.20;99.90
33811;DHT22;20119;48.334;16.206;2022-10-16T12:29:27;19.30;99.90
33811;DHT22;20119;48.334;16.206;2022-10-16T12:31:57;19.40;99.90
33811;DHT22;20119;48.334;16.206;2022-10-16T12:34:26;19.50;99.90
33811;DHT22;20119;48.334;16.206;2022-10-16T12:36:54;19.40;99.90
33811;DHT22;20119;48.334;16.206;2022-10-16T12:39:21;19.50;99.90
33811;DHT22;20119;48.334;16.206;2022-10-16T12:41:59;19.40;99.90
33811;DHT22;20119;48.334;16.206;2022-10-16T12:44:31;19.60;99.90
33811;DHT22;20119;48.334;16.206;2022-10-16T12:47:00;19.50;99.90
33811;DHT22;20119;48.334;16.206;2022-10-16T12:49:30;19.60;99.90
33811;DHT22;20119;48.334;16.206;2022-10-16T12:51:59;19.70;99.90
33811;DHT22;20119;48.334;16.206;2022-10-16T12:54:27;19.80;99.90
33811;DHT22;20119;48.334;16.206;2022-10-16T12:56:58;20.00;99.90
33811;DHT22;20119;48.334;16.206;2022-10-16T12:59:33;20.10;99.90
33811;DHT22;20119;48.334;16.206;2022-10-16T13:02:13;20.30;99.90
33811;DHT22;20119;48.334;16.206;2022-10-16T13:04:46;20.20;99.90
33811;DHT22;20119;48.334;16.206;2022-10-16T13:07:19;20.40;99.90
33811;DHT22;20119;48.334;16.206;2022-10-16T13:09:54;20.10;99.90
33811;DHT22;20119;48.334;16.206;2022-10-16T13:12:33;20.20;99.90
33811;DHT22;20119;48.334;16.206;2022-10-16T13:15:11;20.20;99.90
33811;DHT22;20119;48.334;16.206;2022-10-16T13:17:45;20.00;99.90
33811;DHT22;20119;48.334;16.206;2022-10-16T13:20:17;20.00;99.90
33811;DHT22;20119;48.334;16.206;2022-10-16T13:22:48;20.00;99.90
33811;DHT22;20119;48.334;16.206;2022-10-16T13:25:19;20.00;99.90
33811;DHT22;20119;48.334;16.206;2022-10-16T13:27:50;20.00;99.90
33811;DHT22;20119;48.334;16.206;2022-10-16T13:30:20;19.90;99.90
33811;DHT22;20119;48.334;16.206;2022-10-16T13:32:50;19.90;99.90
33811;DHT22;20119;48.334;16.206;2022-10-16T13:35:22;20.00;99.90
33811;DHT22;20119;48.334;16.206;2022-10-16T13:37:49;19.90;99.90
33811;DHT22;20119;48.334;16.206;2022-10-16T13:40:20;20.00;99.90
33811;DHT22;20119;48.334;16.206;2022-10-16T13:42:47;19.80;99.90
33811;DHT22;20119;48.334;16.206;2022-10-16T13:45:18;19.90;99.90
33811;DHT22;20119;48.334;16.206;2022-10-16T13:47:45;19.70;99.90
33811;DHT22;20119;48.334;16.206;2022-10-16T13:50:14;19.80;99.90
33811;DHT22;20119;48.334;16.206;2022-10-16T13:52:41;19.70;99.90
33811;DHT22;20119;48.334;16.206;2022-10-16T13:55:10;19.90;99.90
33811;DHT22;20119;48.334;16.206;2022-10-16T13:57:37;19.90;99.90
33811;DHT22;20119;48.334;16.206;2022-10-16T14:00:17;19.80;99.90
33811;DHT22;20119;48.334;16.206;2022-10-16T14:02:44;19.70;99.90
33811;DHT22;20119;48.334;16.206;2022-10-16T14:05:11;19.80;99.90
33811;DHT22;20119;48.334;16.206;2022-10-16T14:07:42;19.70;99.90
33811;DHT22;20119;48.334;16.206;2022-10-16T14:10:18;19.60;99.90
33811;DHT22;20119;48.334;16.206;2022-10-16T14:12:53;19.40;99.90
33811;DHT22;20119;48.334;16.206;2022-10-16T14:15:20;19.50;99.90
33811;DHT22;20119;48.334;16.206;2022-10-16T14:17:48;19.50;99.90
33811;DHT22;20119;48.334;16.206;2022-10-16T14:20:16;19.60;99.90
33811;DHT22;20119;48.334;16.206;2022-10-16T14:22:44;19.50;99.90
33811;DHT22;20119;48.334;16.206;2022-10-16T14:27:58;19.40;99.90
33811;DHT22;20119;48.334;16.206;2022-10-16T14:30:27;19.40;99.90
33811;DHT22;20119;48.334;16.206;2022-10-16T14:32:54;19.50;99.90
33811;DHT22;20119;48.334;16.206;2022-10-16T14:35:23;19.60;99.90
33811;DHT22;20119;48.334;16.206;2022-10-16T14:37:53;19.60;99.90
33811;DHT22;20119;48.334;16.206;2022-10-16T14:40:20;19.50;99.90
33811;DHT22;20119;48.334;16.206;2022-10-16T14:42:49;19.50;99.90
33811;DHT22;20119;48.334;16.206;2022-10-16T14:45:18;19.60;99.90
33811;DHT22;20119;48.334;16.206;2022-10-16T14:47:47;19.50;99.90
33811;DHT22;20119;48.334;16.206;2022-10-16T14:50:15;19.50;99.90
33811;DHT22;20119;48.334;16.206;2022-10-16T14:52:42;19.50;99.90
33811;DHT22;20119;48.334;16.206;2022-10-16T14:55:11;19.40;99.90
33811;DHT22;20119;48.334;16.206;2022-10-16T14:57:38;19.40;99.90
33811;DHT22;20119;48.334;16.206;2022-10-16T15:00:08;19.40;99.90
33811;DHT22;20119;48.334;16.206;2022-10-16T15:02:36;19.40;99.90
33811;DHT22;20119;48.334;16.206;2022-10-16T15:05:07;19.40;99.90
33811;DHT22;20119;48.334;16.206;2022-10-16T15:07:37;19.40;99.90
33811;DHT22;20119;48.334;16.206;2022-10-16T15:10:04;19.30;99.90
33811;DHT22;20119;48.334;16.206;2022-10-16T15:12:32;19.20;99.90
33811;DHT22;20119;48.334;16.206;2022-10-16T15:14:59;19.30;99.90
33811;DHT22;20119;48.334;16.206;2022-10-16T15:17:28;19.40;99.90
33811;DHT22;20119;48.334;16.206;2022-10-16T15:19:55;19.30;99.90
33811;DHT22;20119;48.334;16.206;2022-10-16T15:22:23;19.20;99.90
33811;DHT22;20119;48.334;16.206;2022-10-16T15:24:50;19.10;99.90
33811;DHT22;20119;48.334;16.206;2022-10-16T15:27:17;18.90;99.90
33811;DHT22;20119;48.334;16.206;2022-10-16T15:29:45;18.80;99.90
33811;DHT22;20119;48.334;16.206;2022-10-16T15:32:12;18.60;99.90
33811;DHT22;20119;48.334;16.206;2022-10-16T15:34:40;18.60;99.90
33811;DHT22;20119;48.334;16.206;2022-10-16T15:37:08;18.50;99.90